Time;durP1;ratioP1;P1;durP2;ratioP2;P2;SDS_P1;SDS_P2;PMS_P1;PMS_P2;Temp;Humidity;BMP_temperature;BMP_pressure;BME280_temperature;BME280_humidity;BME280_pressure;Samples;Min_cycle;Max_cycle;Signal;HPM_P1;HPM_P2
2022/12/24 00:01:47;;;;;;;5.17;4.60;;;;;;;;;;5012928;28;20291;-48
2022/12/24 00:04:15;;;;;;;5.27;4.77;;;;;;;;;;5013048;28;20197;-48
2022/12/24 00:06:41;;;;;;;5.20;4.70;;;;;;;;;;5012848;28;20306;-48
2022/12/24 00:09:07;;;;;;;5.50;5.00;;;;;;;;;;5012981;28;20308;-48
2022/12/24 00:11:33;;;;;;;4.60;4.20;;;;;;;;;;5012644;28;20244;-48
2022/12/24 00:13:59;;;;;;;4.07;3.73;;;;;;;;;;5012361;28;20202;-48
2022/12/24 00:16:25;;;;;;;4.40;4.00;;;;;;;;;;5012719;28;20210;-49
2022/12/24 00:18:51;;;;;;;4.40;4.00;;;;;;;;;;5012553;28;20237;-48
2022/12/24 00:21:18;;;;;;;4.73;4.33;;;;;;;;;;5012729;28;20704;-48
2022/12/24 00:23:44;;;;;;;4.93;4.43;;;;;;;;;;5012215;28;20206;-49
2022/12/24 00:26:10;;;;;;;4.27;3.97;;;;;;;;;;5012013;28;20582;-49
2022/12/24 00:28:36;;;;;;;4.70;4.30;;;;;;;;;;5011733;28;20249;-47
2022/12/24 00:31:06;;;;;;;5.10;4.60;;;;;;;;;;5012474;28;20229;-46
2022/12/24 00:33:32;;;;;;;5.00;4.53;;;;;;;;;;5012410;28;20642;-46
2022/12/24 00:35:58;;;;;;;5.57;4.93;;;;;;;;;;5012409;28;20202;-47
2022/12/24 00:38:25;;;;;;;5.53;4.93;;;;;;;;;;5012319;28;20678;-47
2022/12/24 00:40:51;;;;;;;6.07;5.47;;;;;;;;;;5012142;28;20233;-47
2022/12/24 00:43:17;;;;;;;5.73;5.23;;;;;;;;;;5012226;28;20197;-47
2022/12/24 00:45:43;;;;;;;5.70;5.20;;;;;;;;;;5011899;28;20652;-47
2022/12/24 00:48:09;;;;;;;5.60;5.10;;;;;;;;;;5012391;28;20204;-47
2022/12/24 00:50:35;;;;;;;6.03;5.50;;;;;;;;;;5007665;28;20202;-47
2022/12/24 00:53:01;;;;;;;5.80;5.17;;;;;;;;;;5012038;28;20251;-46
2022/12/24 00:55:29;;;;;;;5.53;5.10;;;;;;;;;;5011601;28;20201;-46
2022/12/24 00:57:55;;;;;;;5.80;5.30;;;;;;;;;;5011542;28;20228;-46
2022/12/24 01:00:21;;;;;;;5.20;4.70;;;;;;;;;;5011678;28;20193;-47
2022/12/24 01:02:47;;;;;;;5.37;4.87;;;;;;;;;;5011433;28;20699;-47
2022/12/24 01:05:13;;;;;;;5.50;4.77;;;;;;;;;;5011872;28;20236;-46
2022/12/24 01:07:40;;;;;;;4.63;4.23;;;;;;;;;;5011528;28;20648;-46
2022/12/24 01:10:06;;;;;;;5.43;4.93;;;;;;;;;;5011713;28;20202;-47
2022/12/24 01:12:34;;;;;;;5.03;4.63;;;;;;;;;;5011493;28;20190;-47
2022/12/24 01:15:00;;;;;;;4.80;4.40;;;;;;;;;;5011678;28;20293;-48
2022/12/24 01:17:26;;;;;;;4.90;4.50;;;;;;;;;;5011452;28;20294;-47
2022/12/24 01:19:52;;;;;;;4.83;4.43;;;;;;;;;;5011471;28;20252;-47
2022/12/24 01:22:18;;;;;;;4.73;4.33;;;;;;;;;;5011372;28;20287;-47
2022/12/24 01:24:44;;;;;;;4.67;4.30;;;;;;;;;;5011173;28;20208;-48
2022/12/24 01:27:10;;;;;;;4.30;3.90;;;;;;;;;;5011175;28;20216;-48
2022/12/24 01:29:37;;;;;;;4.00;3.70;;;;;;;;;;5011046;28;20190;-47
2022/12/24 01:32:03;;;;;;;3.70;3.40;;;;;;;;;;5011219;28;20200;-47
2022/12/24 01:34:29;;;;;;;4.40;4.00;;;;;;;;;;5010971;28;20214;-48
2022/12/24 01:36:55;;;;;;;3.57;3.27;;;;;;;;;;5011186;28;20201;-48
2022/12/24 01:39:21;;;;;;;3.77;3.47;;;;;;;;;;5011259;28;20237;-48
2022/12/24 01:44:33;;;;;;;4.20;3.80;;;;;;;;;;5011133;28;20192;-47
2022/12/24 01:47:03;;;;;;;4.10;3.70;;;;;;;;;;5011258;28;20207;-47
2022/12/24 01:49:30;;;;;;;4.07;3.67;;;;;;;;;;5011269;28;20221;-47
2022/12/24 01:51:57;;;;;;;3.83;3.43;;;;;;;;;;5011096;28;20198;-47
2022/12/24 01:54:24;;;;;;;3.50;3.20;;;;;;;;;;5011106;28;20202;-47
2022/12/24 01:56:52;;;;;;;3.60;3.30;;;;;;;;;;5011025;28;20718;-48
2022/12/24 01:59:19;;;;;;;3.50;3.20;;;;;;;;;;5011357;28;20225;-48
2022/12/24 02:01:52;;;;;;;3.60;3.30;;;;;;;;;;5012970;28;20221;-46
2022/12/24 02:04:24;;;;;;;3.77;3.47;;;;;;;;;;5015337;28;20198;-46
2022/12/24 02:06:50;;;;;;;3.67;3.37;;;;;;;;;;5015301;28;20660;-45
2022/12/24 02:09:16;;;;;;;4.80;4.40;;;;;;;;;;5015068;28;20208;-46
2022/12/24 02:11:43;;;;;;;4.30;3.90;;;;;;;;;;5015096;28;20201;-46
2022/12/24 02:14:10;;;;;;;4.20;3.80;;;;;;;;;;5015255;28;20210;-46
2022/12/24 02:16:38;;;;;;;4.10;3.80;;;;;;;;;;5015238;28;20203;-47
2022/12/24 02:19:12;;;;;;;3.63;3.33;;;;;;;;;;5015228;28;20205;-47
2022/12/24 02:21:46;;;;;;;4.37;3.97;;;;;;;;;;5014835;28;20429;-47
2022/12/24 02:24:37;;;;;;;4.30;3.90;;;;;;;;;;5015168;28;20623;-46
2022/12/24 02:27:09;;;;;;;4.80;4.40;;;;;;;;;;5014799;28;20212;-47
2022/12/24 02:29:56;;;;;;;4.30;3.90;;;;;;;;;;5014822;28;20401;-47
2022/12/24 02:32:24;;;;;;;4.23;3.90;;;;;;;;;;5008368;28;20197;-46
2022/12/24 02:34:53;;;;;;;4.20;3.90;;;;;;;;;;5014697;28;20236;-47
2022/12/24 02:37:21;;;;;;;3.77;3.47;;;;;;;;;;5014946;28;20209;-46
2022/12/24 02:39:51;;;;;;;4.30;3.90;;;;;;;;;;5014385;28;20721;-46
2022/12/24 02:42:19;;;;;;;4.40;4.00;;;;;;;;;;5014606;28;20234;-46
2022/12/24 02:44:48;;;;;;;4.60;4.20;;;;;;;;;;5014510;28;20206;-46
2022/12/24 02:47:16;;;;;;;5.20;4.70;;;;;;;;;;5014635;28;20256;-46
2022/12/24 02:49:44;;;;;;;5.23;4.73;;;;;;;;;;5014415;28;20242;-46
2022/12/24 02:52:25;;;;;;;4.77;4.37;;;;;;;;;;5014620;28;20260;-46
2022/12/24 02:54:51;;;;;;;5.00;4.50;;;;;;;;;;5014245;28;20584;-46
2022/12/24 02:57:24;;;;;;;5.20;4.70;;;;;;;;;;5014175;28;20198;-46
2022/12/24 02:59:56;;;;;;;6.00;5.43;;;;;;;;;;5014369;28;20568;-47
2022/12/24 03:02:26;;;;;;;6.83;5.77;;;;;;;;;;5014305;28;20280;-47
2022/12/24 03:04:57;;;;;;;5.83;5.20;;;;;;;;;;5014167;28;20229;-47
2022/12/24 03:07:25;;;;;;;6.77;5.23;;;;;;;;;;5014247;28;20205;-46
2022/12/24 03:09:56;;;;;;;8.00;6.50;;;;;;;;;;5013997;28;20206;-46
2022/12/24 03:12:25;;;;;;;6.87;6.23;;;;;;;;;;5013326;28;20194;-47
2022/12/24 03:14:51;;;;;;;7.20;6.50;;;;;;;;;;5013734;28;20291;-46
2022/12/24 03:17:18;;;;;;;7.40;6.57;;;;;;;;;;5014122;28;20718;-46
2022/12/24 03:19:44;;;;;;;8.37;7.33;;;;;;;;;;5013935;28;20207;-46
2022/12/24 03:22:12;;;;;;;9.87;8.50;;;;;;;;;;5013799;28;20587;-46
2022/12/24 03:24:38;;;;;;;10.17;8.40;;;;;;;;;;5013795;28;20205;-46
2022/12/24 03:27:05;;;;;;;9.87;8.57;;;;;;;;;;5013841;28;20201;-47
2022/12/24 03:29:31;;;;;;;9.47;8.47;;;;;;;;;;5013726;28;20201;-46
2022/12/24 03:31:59;;;;;;;8.37;7.57;;;;;;;;;;5013835;28;20248;-47
2022/12/24 03:34:25;;;;;;;9.53;7.93;;;;;;;;;;5013613;28;20720;-47
2022/12/24 03:36:51;;;;;;;6.87;6.17;;;;;;;;;;5013648;28;20212;-47
2022/12/24 03:39:18;;;;;;;6.60;5.90;;;;;;;;;;5013480;28;20268;-47
2022/12/24 03:41:44;;;;;;;7.50;6.40;;;;;;;;;;5013352;28;20221;-47
2022/12/24 03:44:10;;;;;;;6.33;5.70;;;;;;;;;;5013643;28;20564;-47
2022/12/24 03:46:36;;;;;;;6.63;5.67;;;;;;;;;;5013401;28;20194;-47
2022/12/24 03:49:02;;;;;;;6.40;5.80;;;;;;;;;;5013354;28;20201;-47
2022/12/24 03:51:28;;;;;;;6.30;5.70;;;;;;;;;;5013436;28;20284;-47
2022/12/24 03:53:56;;;;;;;5.87;5.33;;;;;;;;;;5013239;28;20197;-47
2022/12/24 03:56:24;;;;;;;6.37;5.13;;;;;;;;;;5013255;28;20206;-46
2022/12/24 03:58:50;;;;;;;6.53;5.73;;;;;;;;;;5013137;28;20209;-46
2022/12/24 04:01:16;;;;;;;6.50;5.77;;;;;;;;;;5013188;28;20218;-46
2022/12/24 04:03:42;;;;;;;6.57;5.87;;;;;;;;;;5013215;28;20225;-46
2022/12/24 04:06:10;;;;;;;6.90;5.73;;;;;;;;;;5013221;28;20294;-47
2022/12/24 04:08:36;;;;;;;7.37;5.77;;;;;;;;;;5013058;28;20201;-47
2022/12/24 04:11:03;;;;;;;6.00;5.40;;;;;;;;;;5012932;28;20201;-47
2022/12/24 04:13:31;;;;;;;7.23;4.90;;;;;;;;;;5012897;28;20212;-47
2022/12/24 04:15:58;;;;;;;5.90;5.03;;;;;;;;;;5012605;28;20208;-47
2022/12/24 04:18:24;;;;;;;5.23;4.47;;;;;;;;;;5012936;28;20204;-47
2022/12/24 04:20:50;;;;;;;6.53;4.33;;;;;;;;;;5012665;28;20263;-46
2022/12/24 04:23:16;;;;;;;4.57;4.17;;;;;;;;;;5012841;28;20201;-47
2022/12/24 04:25:42;;;;;;;6.87;3.97;;;;;;;;;;5012441;28;20194;-46
2022/12/24 04:28:08;;;;;;;5.43;3.80;;;;;;;;;;5012605;28;20768;-46
2022/12/24 04:30:35;;;;;;;5.83;3.90;;;;;;;;;;5012665;28;20190;-47
2022/12/24 04:33:01;;;;;;;4.53;3.63;;;;;;;;;;5012714;28;20612;-47
2022/12/24 04:35:27;;;;;;;4.33;3.37;;;;;;;;;;5012562;28;20257;-47
2022/12/24 04:37:53;;;;;;;3.43;3.13;;;;;;;;;;5012467;28;20572;-46
2022/12/24 04:40:19;;;;;;;3.03;2.73;;;;;;;;;;5012423;28;20316;-46
2022/12/24 04:42:45;;;;;;;3.67;2.37;;;;;;;;;;5012159;28;20703;-46
2022/12/24 04:45:11;;;;;;;3.17;2.83;;;;;;;;;;5012383;28;20202;-47
2022/12/24 04:47:38;;;;;;;3.43;2.20;;;;;;;;;;5012302;28;20233;-46
2022/12/24 04:50:04;;;;;;;3.90;2.70;;;;;;;;;;5012375;28;20301;-47
2022/12/24 04:52:30;;;;;;;2.87;2.40;;;;;;;;;;5012233;28;20197;-47
2022/12/24 04:54:56;;;;;;;3.20;2.13;;;;;;;;;;5012241;28;20248;-47
2022/12/24 04:57:22;;;;;;;4.80;2.40;;;;;;;;;;5012234;28;20235;-47
2022/12/24 04:59:48;;;;;;;3.57;2.30;;;;;;;;;;5012051;28;20204;-47
2022/12/24 05:02:14;;;;;;;4.53;2.50;;;;;;;;;;5012101;28;20225;-47
2022/12/24 05:04:41;;;;;;;5.57;2.53;;;;;;;;;;5012095;28;20201;-47
2022/12/24 05:07:07;;;;;;;7.33;2.70;;;;;;;;;;5012298;28;20210;-47
2022/12/24 05:09:33;;;;;;;5.33;3.13;;;;;;;;;;5012083;28;20202;-47
2022/12/24 05:11:59;;;;;;;7.17;3.40;;;;;;;;;;5011896;28;20299;-47
2022/12/24 05:14:25;;;;;;;12.33;4.90;;;;;;;;;;5012017;28;20225;-47
2022/12/24 05:16:51;;;;;;;16.93;4.53;;;;;;;;;;5011978;28;20232;-47
2022/12/24 05:19:17;;;;;;;15.87;4.60;;;;;;;;;;5012032;28;20672;-48
2022/12/24 05:26:20;;;;;;;17.20;5.00;;;;;;;;;;5011745;28;20229;-47
2022/12/24 05:27:15;;;;;;;16.97;5.13;;;;;;;;;;5011870;28;20616;-47
2022/12/24 05:29:41;;;;;;;16.73;4.60;;;;;;;;;;5011813;28;20280;-48
2022/12/24 05:32:07;;;;;;;24.83;5.77;;;;;;;;;;5011931;28;20201;-48
2022/12/24 05:34:33;;;;;;;16.63;4.50;;;;;;;;;;5011899;28;20316;-47
2022/12/24 05:37:00;;;;;;;20.17;5.10;;;;;;;;;;5013811;28;20209;-48
2022/12/24 05:39:27;;;;;;;16.47;4.50;;;;;;;;;;5015728;28;20703;-48
2022/12/24 05:41:53;;;;;;;15.10;4.40;;;;;;;;;;5015621;28;20217;-47
2022/12/24 05:44:20;;;;;;;13.23;4.17;;;;;;;;;;5015634;28;20228;-48
2022/12/24 05:46:46;;;;;;;18.13;4.57;;;;;;;;;;5015547;28;20201;-48
2022/12/24 05:49:12;;;;;;;16.13;4.33;;;;;;;;;;5015669;28;20225;-48
2022/12/24 05:51:41;;;;;;;19.77;5.20;;;;;;;;;;5015604;28;20201;-48
2022/12/24 05:54:08;;;;;;;16.07;4.73;;;;;;;;;;5015481;28;20205;-48
2022/12/24 05:56:34;;;;;;;15.17;4.27;;;;;;;;;;5015471;28;20204;-48
2022/12/24 05:59:01;;;;;;;14.73;4.47;;;;;;;;;;5015364;28;20201;-48
2022/12/24 06:01:27;;;;;;;16.53;4.13;;;;;;;;;;5015402;28;20228;-47
2022/12/24 06:03:53;;;;;;;16.27;4.87;;;;;;;;;;5015153;28;20197;-48
2022/12/24 06:06:20;;;;;;;17.70;5.20;;;;;;;;;;5015485;28;20193;-48
2022/12/24 06:08:46;;;;;;;19.17;4.93;;;;;;;;;;5014819;28;20206;-48
2022/12/24 06:11:15;;;;;;;13.27;4.30;;;;;;;;;;5013881;28;20206;-48
2022/12/24 06:13:41;;;;;;;17.57;5.40;;;;;;;;;;5014720;28;20227;-48
2022/12/24 06:16:08;;;;;;;19.50;5.70;;;;;;;;;;5014939;28;20209;-48
2022/12/24 06:18:35;;;;;;;20.70;5.03;;;;;;;;;;5014682;28;20272;-47
2022/12/24 06:21:01;;;;;;;27.60;5.90;;;;;;;;;;5014848;28;20292;-48
2022/12/24 06:23:28;;;;;;;20.40;6.07;;;;;;;;;;5014630;28;20660;-48
2022/12/24 06:25:55;;;;;;;18.13;6.03;;;;;;;;;;5014658;28;20210;-48
2022/12/24 06:28:22;;;;;;;22.17;6.27;;;;;;;;;;5014863;28;20236;-49
2022/12/24 06:30:49;;;;;;;22.90;5.53;;;;;;;;;;5014412;28;20695;-48
2022/12/24 06:33:16;;;;;;;19.50;5.10;;;;;;;;;;5014402;28;20197;-48
2022/12/24 06:35:42;;;;;;;24.70;6.33;;;;;;;;;;5014513;28;20221;-48
2022/12/24 06:38:08;;;;;;;25.50;5.93;;;;;;;;;;5014528;28;20243;-48
2022/12/24 06:40:34;;;;;;;18.70;6.27;;;;;;;;;;5014518;28;20284;-48
2022/12/24 06:43:00;;;;;;;19.00;5.50;;;;;;;;;;5014367;28;20317;-48
2022/12/24 06:45:27;;;;;;;18.13;5.57;;;;;;;;;;5014460;28;20288;-48
2022/12/24 06:47:53;;;;;;;17.83;5.70;;;;;;;;;;5014297;28;20977;-48
2022/12/24 06:50:19;;;;;;;18.97;4.83;;;;;;;;;;5014625;28;20213;-48
2022/12/24 06:52:46;;;;;;;23.17;6.13;;;;;;;;;;5014566;28;20622;-48
2022/12/24 06:55:12;;;;;;;22.00;5.07;;;;;;;;;;5014504;28;20614;-47
2022/12/24 06:57:38;;;;;;;22.17;5.57;;;;;;;;;;5014376;28;20229;-48
2022/12/24 07:00:05;;;;;;;22.87;5.33;;;;;;;;;;5014467;28;20220;-47
2022/12/24 07:02:32;;;;;;;23.13;6.20;;;;;;;;;;5014233;28;20300;-47
2022/12/24 07:04:58;;;;;;;23.40;4.97;;;;;;;;;;5014288;28;20206;-47
2022/12/24 07:07:24;;;;;;;24.23;5.47;;;;;;;;;;5014269;28;20225;-47
2022/12/24 07:09:50;;;;;;;23.10;5.90;;;;;;;;;;5014086;28;20237;-47
2022/12/24 07:12:16;;;;;;;18.90;4.50;;;;;;;;;;5014280;28;20197;-46
2022/12/24 07:14:42;;;;;;;17.37;4.50;;;;;;;;;;5013775;28;20691;-47
2022/12/24 07:17:08;;;;;;;16.70;4.73;;;;;;;;;;5014247;28;20244;-46
2022/12/24 07:19:35;;;;;;;20.23;5.10;;;;;;;;;;5013622;28;20995;-46
2022/12/24 07:22:01;;;;;;;23.93;5.30;;;;;;;;;;5013699;28;20883;-47
2022/12/24 07:24:27;;;;;;;21.83;5.07;;;;;;;;;;5014046;28;20636;-45
2022/12/24 07:26:53;;;;;;;19.00;5.17;;;;;;;;;;5013848;28;20280;-47
2022/12/24 07:29:19;;;;;;;20.33;5.47;;;;;;;;;;5013755;28;20663;-47
2022/12/24 07:31:45;;;;;;;23.87;5.13;;;;;;;;;;5013633;28;20201;-46
2022/12/24 07:34:11;;;;;;;23.77;5.50;;;;;;;;;;5013894;28;20272;-47
2022/12/24 07:36:38;;;;;;;21.90;4.50;;;;;;;;;;5013778;28;20209;-47
2022/12/24 07:39:04;;;;;;;28.77;5.50;;;;;;;;;;5013564;28;20245;-47
2022/12/24 07:41:30;;;;;;;18.20;4.50;;;;;;;;;;5013873;28;20609;-47
2022/12/24 07:43:56;;;;;;;17.60;4.53;;;;;;;;;;5013751;28;20253;-47
2022/12/24 07:46:22;;;;;;;21.57;5.93;;;;;;;;;;5013600;28;20747;-47
2022/12/24 07:48:48;;;;;;;25.03;5.03;;;;;;;;;;5013492;28;20201;-47
2022/12/24 07:51:14;;;;;;;19.77;4.90;;;;;;;;;;5011402;28;20206;-47
2022/12/24 07:53:46;;;;;;;20.83;5.93;;;;;;;;;;5012965;28;20197;-47
2022/12/24 07:56:12;;;;;;;26.53;5.00;;;;;;;;;;5013132;28;20292;-48
2022/12/24 07:58:38;;;;;;;20.83;4.83;;;;;;;;;;5012544;28;20293;-48
2022/12/24 08:01:04;;;;;;;18.67;4.47;;;;;;;;;;5012786;28;20288;-47
2022/12/24 08:03:30;;;;;;;14.10;4.93;;;;;;;;;;5011977;28;20256;-47
2022/12/24 08:05:57;;;;;;;20.57;5.37;;;;;;;;;;5012185;28;20650;-47
2022/12/24 08:08:23;;;;;;;19.77;4.83;;;;;;;;;;5012428;28;20493;-48
2022/12/24 08:10:51;;;;;;;19.43;4.40;;;;;;;;;;5012169;28;20212;-47
2022/12/24 08:13:17;;;;;;;17.80;4.33;;;;;;;;;;5012483;28;20209;-47
2022/12/24 08:15:44;;;;;;;15.90;3.80;;;;;;;;;;5012261;28;20225;-47
2022/12/24 08:18:10;;;;;;;20.43;5.00;;;;;;;;;;5011853;28;20204;-47
2022/12/24 08:20:37;;;;;;;20.37;4.83;;;;;;;;;;5012369;28;20280;-48
2022/12/24 08:23:03;;;;;;;19.50;4.97;;;;;;;;;;5012002;28;20316;-48
2022/12/24 08:25:29;;;;;;;17.77;5.03;;;;;;;;;;5011956;28;20655;-46
2022/12/24 08:27:56;;;;;;;21.53;4.30;;;;;;;;;;5012497;28;20257;-46
2022/12/24 08:30:22;;;;;;;23.43;4.57;;;;;;;;;;5012606;28;20240;-47
2022/12/24 08:32:48;;;;;;;21.83;4.97;;;;;;;;;;5012459;28;20237;-47
2022/12/24 08:35:14;;;;;;;19.47;5.00;;;;;;;;;;5012487;28;20236;-46
2022/12/24 08:37:40;;;;;;;15.10;3.90;;;;;;;;;;5012528;28;20210;-48
2022/12/24 08:40:06;;;;;;;17.83;4.73;;;;;;;;;;5012233;28;20245;-47
2022/12/24 08:42:32;;;;;;;18.60;4.50;;;;;;;;;;5012002;28;20229;-47
2022/12/24 08:45:00;;;;;;;18.60;5.00;;;;;;;;;;5012177;28;20575;-47
2022/12/24 08:47:26;;;;;;;16.57;4.70;;;;;;;;;;5012248;28;20577;-47
2022/12/24 08:49:52;;;;;;;20.97;4.43;;;;;;;;;;5012099;28;20300;-47
2022/12/24 08:52:18;;;;;;;16.17;5.03;;;;;;;;;;5012214;28;20292;-47
2022/12/24 08:54:44;;;;;;;19.50;5.67;;;;;;;;;;5011863;28;20202;-47
2022/12/24 08:57:10;;;;;;;22.50;5.00;;;;;;;;;;5008111;28;20255;-47
2022/12/24 08:59:36;;;;;;;14.77;4.57;;;;;;;;;;5011323;28;20206;-47
2022/12/24 09:02:04;;;;;;;18.37;4.27;;;;;;;;;;5010882;28;20577;-47
2022/12/24 09:04:30;;;;;;;18.27;4.57;;;;;;;;;;5011117;28;20210;-47
2022/12/24 09:06:55;;;;;;;21.73;5.60;;;;;;;;;;5010676;28;20216;-47
2022/12/24 09:09:22;;;;;;;19.73;5.33;;;;;;;;;;5011416;28;20205;-47
2022/12/24 09:11:47;;;;;;;19.97;4.73;;;;;;;;;;5010257;28;20197;-47
2022/12/24 09:14:13;;;;;;;18.50;5.37;;;;;;;;;;5011043;28;20744;-47
2022/12/24 09:16:39;;;;;;;23.90;5.17;;;;;;;;;;5011692;28;20210;-48
2022/12/24 09:19:07;;;;;;;28.63;4.73;;;;;;;;;;5011601;28;20656;-47
2022/12/24 09:21:33;;;;;;;23.63;5.07;;;;;;;;;;5011460;28;20197;-48
2022/12/24 09:24:00;;;;;;;14.73;5.57;;;;;;;;;;5011250;28;20281;-46
2022/12/24 09:26:28;;;;;;;31.00;6.67;;;;;;;;;;5011420;28;20723;-47
2022/12/24 09:28:54;;;;;;;27.00;7.73;;;;;;;;;;5011479;28;20259;-47
2022/12/24 09:31:20;;;;;;;21.17;5.80;;;;;;;;;;5011778;28;20205;-46
2022/12/24 09:33:47;;;;;;;22.80;6.47;;;;;;;;;;5011269;28;20208;-47
2022/12/24 09:36:15;;;;;;;26.47;7.70;;;;;;;;;;5011510;28;20240;-47
2022/12/24 09:38:41;;;;;;;26.53;6.30;;;;;;;;;;5011077;28;20233;-48
2022/12/24 09:41:14;;;;;;;21.93;5.87;;;;;;;;;;5009648;28;20722;-47
2022/12/24 09:43:45;;;;;;;20.30;5.73;;;;;;;;;;5011605;28;20232;-47
2022/12/24 09:46:13;;;;;;;25.30;6.20;;;;;;;;;;5008872;28;20205;-47
2022/12/24 09:48:41;;;;;;;37.10;19.40;;;;;;;;;;5010592;28;20567;-47
2022/12/24 09:51:08;;;;;;;28.33;13.83;;;;;;;;;;5011472;28;20201;-48
2022/12/24 09:53:39;;;;;;;25.23;8.00;;;;;;;;;;5011583;28;20277;-47
2022/12/24 09:56:07;;;;;;;24.73;7.50;;;;;;;;;;5011536;28;20209;-48
2022/12/24 09:58:34;;;;;;;22.40;6.53;;;;;;;;;;5011596;28;20255;-48
2022/12/24 10:01:01;;;;;;;20.00;5.77;;;;;;;;;;5011434;28;20212;-47
2022/12/24 10:03:27;;;;;;;24.47;6.90;;;;;;;;;;5011428;28;20676;-47
2022/12/24 10:06:00;;;;;;;20.70;6.90;;;;;;;;;;5011429;28;20337;-47
2022/12/24 10:08:30;;;;;;;23.63;7.73;;;;;;;;;;5011658;28;20193;-47
2022/12/24 10:11:00;;;;;;;17.90;5.77;;;;;;;;;;5011283;28;20209;-47
2022/12/24 10:13:32;;;;;;;75.67;37.50;;;;;;;;;;5010823;28;20209;-47
2022/12/24 10:16:02;;;;;;;21.50;6.77;;;;;;;;;;5011022;28;20280;-47
2022/12/24 10:18:33;;;;;;;19.63;6.70;;;;;;;;;;5011237;28;20198;-47
2022/12/24 10:21:03;;;;;;;21.00;6.13;;;;;;;;;;5011015;28;20617;-47
2022/12/24 10:23:32;;;;;;;20.60;6.57;;;;;;;;;;5013891;28;20758;-47
2022/12/24 10:26:04;;;;;;;21.77;5.90;;;;;;;;;;5014524;28;20201;-47
2022/12/24 10:28:31;;;;;;;16.23;5.87;;;;;;;;;;5014826;28;20412;-47
2022/12/24 10:30:59;;;;;;;20.37;6.40;;;;;;;;;;5014557;28;20202;-47
2022/12/24 10:33:28;;;;;;;20.80;6.73;;;;;;;;;;5014679;28;20447;-47
2022/12/24 10:35:55;;;;;;;26.67;7.17;;;;;;;;;;5014295;28;20202;-47
2022/12/24 10:38:22;;;;;;;21.43;7.57;;;;;;;;;;5014430;28;20232;-47
2022/12/24 10:40:49;;;;;;;22.77;6.97;;;;;;;;;;5014321;28;20189;-47
2022/12/24 10:43:17;;;;;;;16.27;6.37;;;;;;;;;;5013936;28;20644;-47
2022/12/24 10:45:45;;;;;;;29.03;11.10;;;;;;;;;;5013915;28;20201;-47
2022/12/24 10:48:16;;;;;;;19.27;6.53;;;;;;;;;;5013907;28;20204;-47
2022/12/24 10:50:47;;;;;;;25.07;8.57;;;;;;;;;;5014279;28;20300;-47
2022/12/24 10:53:15;;;;;;;23.90;7.63;;;;;;;;;;5014489;28;20197;-48
2022/12/24 10:55:42;;;;;;;19.47;6.93;;;;;;;;;;5014157;28;20205;-48
2022/12/24 10:58:13;;;;;;;21.60;7.40;;;;;;;;;;5014095;28;20201;-46
2022/12/24 11:00:40;;;;;;;19.30;7.73;;;;;;;;;;5014306;28;20296;-47
2022/12/24 11:03:08;;;;;;;20.27;7.37;;;;;;;;;;5013756;28;20225;-47
2022/12/24 11:05:34;;;;;;;15.63;5.77;;;;;;;;;;5014280;28;20244;-48
2022/12/24 11:08:01;;;;;;;21.40;6.90;;;;;;;;;;5013932;28;20208;-46
2022/12/24 11:10:27;;;;;;;21.67;7.23;;;;;;;;;;5013724;28;20198;-47
2022/12/24 11:12:53;;;;;;;16.57;6.20;;;;;;;;;;5013714;28;20193;-47
2022/12/24 11:15:22;;;;;;;16.40;6.30;;;;;;;;;;5013900;28;20202;-47
2022/12/24 11:17:54;;;;;;;18.40;6.70;;;;;;;;;;5013659;28;20296;-46
2022/12/24 11:20:23;;;;;;;22.20;8.60;;;;;;;;;;5012806;28;20640;-47
2022/12/24 11:22:52;;;;;;;23.30;6.73;;;;;;;;;;5011227;28;20264;-47
2022/12/24 11:25:21;;;;;;;22.87;7.20;;;;;;;;;;5013488;28;20196;-48
2022/12/24 11:27:50;;;;;;;24.90;8.60;;;;;;;;;;5013719;28;20208;-48
2022/12/24 11:30:21;;;;;;;16.70;6.33;;;;;;;;;;5013743;28;20285;-48
2022/12/24 11:32:48;;;;;;;14.83;6.13;;;;;;;;;;5013647;28;20661;-48
2022/12/24 11:35:17;;;;;;;21.63;7.00;;;;;;;;;;5012244;28;20217;-47
2022/12/24 11:37:43;;;;;;;18.97;7.00;;;;;;;;;;5013497;28;20198;-47
2022/12/24 11:40:19;;;;;;;20.03;7.30;;;;;;;;;;5012929;28;20245;-47
2022/12/24 11:42:45;;;;;;;20.17;6.57;;;;;;;;;;5013132;28;20789;-47
2022/12/24 11:45:17;;;;;;;14.77;5.70;;;;;;;;;;5012966;28;20202;-47
2022/12/24 11:47:43;;;;;;;17.13;8.93;;;;;;;;;;5013121;28;20289;-47
2022/12/24 11:50:21;;;;;;;8.80;4.37;;;;;;;;;;5013069;28;20293;-47
2022/12/24 11:52:49;;;;;;;12.20;4.70;;;;;;;;;;5013072;28;20194;-48
2022/12/24 11:55:18;;;;;;;15.47;8.17;;;;;;;;;;5012919;28;20248;-47
2022/12/24 11:57:49;;;;;;;16.80;10.10;;;;;;;;;;5012993;28;20648;-48
2022/12/24 12:00:15;;;;;;;13.40;4.27;;;;;;;;;;5013003;28;20575;-47
2022/12/24 12:02:42;;;;;;;17.37;6.30;;;;;;;;;;5012670;28;20222;-48
2022/12/24 12:05:11;;;;;;;18.57;6.60;;;;;;;;;;5012779;28;20221;-48
2022/12/24 12:07:38;;;;;;;14.33;4.80;;;;;;;;;;5012732;28;20688;-48
2022/12/24 12:10:05;;;;;;;16.70;6.03;;;;;;;;;;5011824;28;20202;-48
2022/12/24 12:12:35;;;;;;;11.40;4.40;;;;;;;;;;5003608;28;20202;-47
2022/12/24 12:15:03;;;;;;;21.33;12.00;;;;;;;;;;4992679;28;20228;-48
2022/12/24 12:17:32;;;;;;;13.57;5.20;;;;;;;;;;4992910;28;20277;-48
2022/12/24 12:19:59;;;;;;;16.13;7.30;;;;;;;;;;4992645;28;20204;-48
2022/12/24 12:22:28;;;;;;;15.93;6.63;;;;;;;;;;4992255;28;20222;-48
2022/12/24 12:24:56;;;;;;;14.17;5.17;;;;;;;;;;4992543;28;20228;-48
2022/12/24 12:27:26;;;;;;;17.33;6.83;;;;;;;;;;4992623;28;20637;-48
2022/12/24 12:29:55;;;;;;;16.40;4.97;;;;;;;;;;4992614;28;20204;-48
2022/12/24 12:32:25;;;;;;;16.63;6.57;;;;;;;;;;4992604;28;20187;-48
2022/12/24 12:34:55;;;;;;;18.40;5.97;;;;;;;;;;4992514;28;20223;-48
2022/12/24 12:37:25;;;;;;;20.63;5.73;;;;;;;;;;4992596;28;20533;-49
2022/12/24 12:39:51;;;;;;;16.47;5.87;;;;;;;;;;4992328;28;20249;-48
2022/12/24 12:42:23;;;;;;;15.37;5.30;;;;;;;;;;4992396;28;20661;-48
2022/12/24 12:44:54;;;;;;;15.47;5.57;;;;;;;;;;4992277;28;20661;-48
2022/12/24 12:47:27;;;;;;;19.00;6.30;;;;;;;;;;4992562;28;20209;-47
2022/12/24 12:50:00;;;;;;;14.70;6.60;;;;;;;;;;4992572;28;20672;-48
2022/12/24 12:52:34;;;;;;;17.10;6.47;;;;;;;;;;4992567;28;20244;-47
2022/12/24 12:55:05;;;;;;;17.50;6.10;;;;;;;;;;4992391;28;20241;-47
2022/12/24 12:57:35;;;;;;;14.00;4.70;;;;;;;;;;4992513;28;20205;-47
2022/12/24 13:00:04;;;;;;;16.83;5.00;;;;;;;;;;4992262;28;20197;-47
2022/12/24 13:02:41;;;;;;;11.20;3.77;;;;;;;;;;4992442;28;20257;-47
2022/12/24 13:05:27;;;;;;;12.10;4.70;;;;;;;;;;4992278;28;20571;-47
2022/12/24 13:08:10;;;;;;;12.47;3.47;;;;;;;;;;4992418;28;20201;-48
2022/12/24 13:10:54;;;;;;;9.23;3.77;;;;;;;;;;4982281;28;20285;-47
2022/12/24 13:13:38;;;;;;;10.03;4.00;;;;;;;;;;4992385;28;20198;-47
2022/12/24 13:16:14;;;;;;;10.20;4.40;;;;;;;;;;4992104;28;20202;-47
2022/12/24 13:18:48;;;;;;;13.00;4.63;;;;;;;;;;4992457;28;20201;-52
2022/12/24 13:21:18;;;;;;;14.87;6.20;;;;;;;;;;4992102;28;20735;-47
2022/12/24 13:23:44;;;;;;;11.30;3.70;;;;;;;;;;4991956;28;20230;-47
2022/12/24 13:26:11;;;;;;;14.10;4.43;;;;;;;;;;4991892;28;20264;-51
2022/12/24 13:28:37;;;;;;;12.63;4.70;;;;;;;;;;4991823;28;20203;-47
2022/12/24 13:31:27;;;;;;;11.67;3.97;;;;;;;;;;4991683;28;20732;-48
2022/12/24 13:33:55;;;;;;;15.07;4.50;;;;;;;;;;4991169;28;20293;-47
2022/12/24 13:36:22;;;;;;;9.50;4.23;;;;;;;;;;4989464;28;20293;-47
2022/12/24 13:38:48;;;;;;;12.87;4.97;;;;;;;;;;4991711;28;20246;-47
2022/12/24 13:41:39;;;;;;;16.97;4.57;;;;;;;;;;4991649;28;20229;-47
2022/12/24 13:44:19;;;;;;;9.27;4.10;;;;;;;;;;4991892;28;20197;-48
2022/12/24 13:46:46;;;;;;;12.40;4.10;;;;;;;;;;4989456;28;20272;-47
2022/12/24 13:49:17;;;;;;;11.23;4.17;;;;;;;;;;4991004;28;20628;-46
2022/12/24 13:51:43;;;;;;;9.80;4.27;;;;;;;;;;4991503;28;20731;-46
2022/12/24 13:54:11;;;;;;;10.43;4.27;;;;;;;;;;4991465;28;20229;-47
2022/12/24 13:56:37;;;;;;;11.83;3.77;;;;;;;;;;4991544;28;20225;-46
2022/12/24 13:59:11;;;;;;;10.47;3.73;;;;;;;;;;4995373;28;20198;-47
2022/12/24 14:01:38;;;;;;;10.27;3.60;;;;;;;;;;4995438;28;20731;-48
2022/12/24 14:04:07;;;;;;;10.33;3.93;;;;;;;;;;4995336;28;20214;-54
2022/12/24 14:06:35;;;;;;;10.03;5.50;;;;;;;;;;4995283;28;20242;-48
2022/12/24 14:09:06;;;;;;;8.83;3.70;;;;;;;;;;4995214;28;20280;-48
2022/12/24 14:11:57;;;;;;;9.40;3.40;;;;;;;;;;4995260;28;20221;-48
2022/12/24 14:14:28;;;;;;;11.03;4.07;;;;;;;;;;4995060;28;20240;-48
2022/12/24 14:16:54;;;;;;;11.37;3.93;;;;;;;;;;4995205;28;20210;-48
2022/12/24 14:19:22;;;;;;;12.50;4.60;;;;;;;;;;4995135;28;20213;-48
2022/12/24 14:21:52;;;;;;;12.33;4.03;;;;;;;;;;4994509;28;20213;-47
2022/12/24 14:24:21;;;;;;;9.33;3.13;;;;;;;;;;4992301;28;20214;-46
2022/12/24 14:26:48;;;;;;;10.17;3.57;;;;;;;;;;4994838;28;20269;-48
2022/12/24 14:29:16;;;;;;;11.57;3.70;;;;;;;;;;4995004;28;20528;-46
2022/12/24 14:31:50;;;;;;;9.83;3.30;;;;;;;;;;4994880;28;20198;-47
2022/12/24 14:34:16;;;;;;;11.83;3.90;;;;;;;;;;4994964;28;20218;-47
2022/12/24 14:36:42;;;;;;;9.97;3.87;;;;;;;;;;4993075;28;20197;-47
2022/12/24 14:39:15;;;;;;;11.50;4.03;;;;;;;;;;4994448;28;20645;-48
2022/12/24 14:41:45;;;;;;;10.10;3.93;;;;;;;;;;4994681;28;20268;-47
2022/12/24 14:44:16;;;;;;;10.33;4.10;;;;;;;;;;4994646;28;20206;-47
2022/12/24 14:46:44;;;;;;;13.13;4.50;;;;;;;;;;4994957;28;20248;-47